This is the latest recevied weather packets stored in our database for station/object KD5HIA. If no packets are shown the sender has not sent any weather packets the latest 10 day(s).
| Time | Temp. | Humidity | Pressure | Rain* | Wind** | Luminosity | Snow |
|---|---|---|---|---|---|---|---|
| 1777731621 | 15° C | 69% | 1024.4 hPa | 0 mm | - | 223 W/m² | - |
| 1777731017 | 14.44° C | 71% | 1024.4 hPa | 0 mm | - | 235 W/m² | - |
| 1777730417 | 14.44° C | 74% | 1024.3 hPa | 0 mm | - | 237 W/m² | - |
| 1777729817 | 13.33° C | 78% | 1024.1 hPa | 0 mm | - | 219 W/m² | - |
| 1777729218 | 13.33° C | 80% | 1024 hPa | 0 mm | - | 199 W/m² | - |
| 1777728618 | 12.78° C | 83% | 1023.9 hPa | 0 mm | - | 180 W/m² | - |
| 1777728018 | 12.22° C | 85% | 1023.8 hPa | 0 mm | - | 176 W/m² | - |
| 1777727417 | 11.67° C | 88% | 1023.7 hPa | 0 mm | - | 155 W/m² | - |
| 1777726817 | 11.11° C | 90% | 1023.6 hPa | 0 mm | - | 94 W/m² | - |
| 1777726218 | 11.11° C | 90% | 1023.5 hPa | 0 mm | - | 45 W/m² | - |
| 1777725618 | 10.56° C | 91% | 1023.3 hPa | 0 mm | - | 43 W/m² | - |
| 1777725017 | 10.56° C | 91% | 1022.8 hPa | 0 mm | - | 22 W/m² | - |
| 1777724418 | 10° C | 91% | 1022.8 hPa | 0 mm | - | 16 W/m² | - |
| 1777723818 | 10.56° C | 90% | 1022.8 hPa | 0 mm | - | 11 W/m² | - |
| 1777723218 | 10.56° C | 90% | 1022.7 hPa | 0 mm | - | 0 W/m² | - |
| 1777722617 | 10.56° C | 90% | 1022.6 hPa | 0 mm | - | 0 W/m² | - |
| 1777722017 | 10.56° C | 90% | 1022.6 hPa | 0 mm | - | 0 W/m² | - |
| 1777721418 | 10.56° C | 91% | 1022.6 hPa | 0 mm | - | 0 W/m² | - |
| 1777720818 | 10.56° C | 91% | 1022.5 hPa | 0 mm | - | 0 W/m² | - |
| 1777720217 | 10.56° C | 90% | 1022.3 hPa | 0 mm | - | 0 W/m² | - |
| 1777719618 | 10.56° C | 90% | 1022.1 hPa | 0 mm | - | 0 W/m² | - |
| 1777719017 | 10° C | 90% | 1021.8 hPa | 0 mm | - | 0 W/m² | - |
| 1777718418 | 10° C | 91% | 1021.8 hPa | 0 mm | - | 0 W/m² | - |
| 1777717817 | 10° C | 91% | 1021.6 hPa | 0 mm | - | 0 W/m² | - |
| 1777717217 | 10° C | 91% | 1021.5 hPa | 0 mm | - | 0 W/m² | - |
* Rain latest hour (hover to see other rain measurements)
** Current wind speed in m/s (hover to see current wind gust speed)